Time;durP1;ratioP1;P1;durP2;ratioP2;P2;SDS_P1;SDS_P2;PMS_P1;PMS_P2;Temp;Humidity;BMP_temperature;BMP_pressure;BME280_temperature;BME280_humidity;BME280_pressure;Samples;Min_cycle;Max_cycle;Signal;HPM_P1;HPM_P2
2022/11/01 00:01:44;;;;;;;14.70;6.20;;;;;;;14.40;96.16;100805.59;5091873;28;20031;-70
2022/11/01 00:04:09;;;;;;;15.68;6.10;;;;;;;14.45;96.03;100802.25;5073162;28;20024;-70
2022/11/01 00:06:35;;;;;;;16.58;6.72;;;;;;;14.49;96.04;100795.41;5091975;28;20570;-70
2022/11/01 00:09:01;;;;;;;11.73;6.25;;;;;;;14.51;96.16;100787.13;5091889;28;20040;-70
2022/11/01 00:11:26;;;;;;;14.20;5.97;;;;;;;14.52;96.23;100784.22;5091888;28;20039;-70
2022/11/01 00:13:52;;;;;;;11.98;5.70;;;;;;;14.58;96.61;100782.53;5091659;28;20043;-70
2022/11/01 00:16:18;;;;;;;13.50;5.78;;;;;;;14.60;96.11;100783.13;5091485;28;20030;-70
2022/11/01 00:18:44;;;;;;;12.98;6.38;;;;;;;14.65;96.75;100786.78;5091709;28;20073;-70
2022/11/01 00:21:10;;;;;;;12.35;6.20;;;;;;;14.64;97.85;100782.44;5090826;28;20040;-70
2022/11/01 00:23:37;;;;;;;19.95;6.13;;;;;;;14.64;97.94;100771.69;5073533;28;20083;-70
2022/11/01 00:26:03;;;;;;;15.52;5.68;;;;;;;14.62;98.56;100764.94;5091453;28;20092;-70
2022/11/01 00:28:29;;;;;;;13.93;6.38;;;;;;;14.71;98.58;100770.81;5090954;28;20031;-70
2022/11/01 00:30:56;;;;;;;14.23;6.22;;;;;;;14.71;98.34;100766.25;5091339;28;20026;-70
2022/11/01 00:33:21;;;;;;;17.08;5.90;;;;;;;14.72;99.13;100767.09;5091349;28;20552;-70
2022/11/01 00:35:47;;;;;;;12.07;6.78;;;;;;;14.72;98.84;100767.09;5091190;28;20040;-70
2022/11/01 00:38:14;;;;;;;15.50;6.85;;;;;;;14.71;99.47;100760.09;5091066;28;20394;-70
2022/11/01 00:40:40;;;;;;;12.55;6.60;;;;;;;14.73;99.14;100749.94;5090953;28;20065;-70
2022/11/01 00:43:06;;;;;;;13.75;6.68;;;;;;;14.75;99.42;100756.72;5072892;28;20093;-70
2022/11/01 00:45:31;;;;;;;11.35;6.00;;;;;;;14.72;99.82;100753.66;5091272;28;20032;-70
2022/11/01 00:47:56;;;;;;;21.23;6.97;;;;;;;14.71;99.54;100752.84;5091123;28;20077;-70
2022/11/01 00:50:22;;;;;;;14.70;6.30;;;;;;;14.68;100.00;100758.66;5072707;28;20048;-70
2022/11/01 00:52:47;;;;;;;12.00;4.75;;;;;;;14.62;100.00;100743.47;5091051;28;20127;-70
2022/11/01 00:55:13;;;;;;;12.52;5.93;;;;;;;14.66;100.00;100750.81;5072967;28;20058;-70
2022/11/01 00:57:38;;;;;;;12.48;5.30;;;;;;;14.66;100.00;100750.00;5090438;28;20558;-70
2022/11/01 01:00:04;;;;;;;16.17;6.47;;;;;;;14.70;100.00;100759.28;5090626;28;20439;-70
2022/11/01 01:02:30;;;;;;;11.30;5.57;;;;;;;14.67;100.00;100751.66;5090826;28;20128;-70
2022/11/01 01:04:55;;;;;;;11.68;5.90;;;;;;;14.72;100.00;100750.97;5090649;28;20045;-70
2022/11/01 01:07:20;;;;;;;15.70;5.35;;;;;;;14.73;100.00;100742.72;5090303;28;20039;-70
2022/11/01 01:09:46;;;;;;;12.77;4.78;;;;;;;14.74;100.00;100733.59;5090548;28;20032;-70
2022/11/01 01:12:11;;;;;;;11.43;5.22;;;;;;;14.69;100.00;100731.56;5090804;28;20032;-70
2022/11/01 01:14:36;;;;;;;12.07;4.50;;;;;;;14.79;100.00;100732.91;5090314;28;20039;-70
2022/11/01 01:17:03;;;;;;;12.40;4.70;;;;;;;14.81;100.00;100728.97;5090647;28;20159;-70
2022/11/01 01:19:29;;;;;;;8.23;4.05;;;;;;;14.90;100.00;100737.50;5090417;28;20539;-70
2022/11/01 01:21:55;;;;;;;13.20;5.63;;;;;;;14.95;100.00;100734.97;5090508;28;20111;-70
2022/11/01 01:24:20;;;;;;;15.02;3.88;;;;;;;15.01;100.00;100728.69;5090258;28;20028;-70
2022/11/01 01:26:46;;;;;;;12.43;4.20;;;;;;;15.05;100.00;100716.44;5090263;28;21002;-70
2022/11/01 01:29:11;;;;;;;9.13;5.30;;;;;;;15.13;100.00;100723.34;5090393;28;20066;-70
2022/11/01 01:31:37;;;;;;;13.38;5.07;;;;;;;15.18;100.00;100726.16;5089573;28;20036;-70
2022/11/01 01:34:02;;;;;;;10.55;4.25;;;;;;;15.22;100.00;100719.28;5089460;28;20083;-70
2022/11/01 01:36:28;;;;;;;13.18;4.55;;;;;;;15.27;100.00;100723.94;5090140;28;20036;-70
2022/11/01 01:38:53;;;;;;;8.55;4.90;;;;;;;15.27;100.00;100730.16;5090328;28;20020;-70
2022/11/01 01:44:41;;;;;;;8.57;4.03;;;;;;;15.37;100.00;100728.75;5090390;28;20051;-70
2022/11/01 01:47:09;;;;;;;13.88;4.75;;;;;;;15.36;100.00;100725.25;5089795;28;20042;-70
2022/11/01 01:49:34;;;;;;;9.07;3.60;;;;;;;15.42;100.00;100724.31;5090015;28;20485;-70
2022/11/01 01:52:00;;;;;;;12.45;4.68;;;;;;;15.46;100.00;100730.06;5089756;28;20032;-69
2022/11/01 01:54:27;;;;;;;14.90;5.88;;;;;;;15.47;100.00;100729.00;5071815;28;20036;-70
2022/11/01 01:56:52;;;;;;;11.70;5.05;;;;;;;15.47;100.00;100729.00;5089762;28;20039;-70
2022/11/01 01:59:18;;;;;;;11.95;4.95;;;;;;;15.41;100.00;100716.50;5089631;28;20027;-70
2022/11/01 02:01:43;;;;;;;12.10;3.90;;;;;;;15.47;100.00;100718.25;5089757;28;20024;-70
2022/11/01 02:04:36;;;;;;;9.70;4.80;;;;;;;15.48;100.00;100725.25;5089761;28;20448;-70
2022/11/01 02:07:01;;;;;;;8.40;4.53;;;;;;;15.53;100.00;100720.81;5089458;28;20415;-70
2022/11/01 02:09:27;;;;;;;11.85;4.72;;;;;;;15.59;100.00;100721.78;5071577;28;20032;-70
2022/11/01 02:11:52;;;;;;;15.43;5.65;;;;;;;15.63;100.00;100714.88;5071400;28;20028;-69
2022/11/01 02:14:22;;;;;;;11.20;5.28;;;;;;;15.73;100.00;100725.09;5089333;28;20024;-70
2022/11/01 02:17:02;;;;;;;7.80;4.47;;;;;;;15.78;100.00;100723.31;5071464;28;20032;-69
2022/11/01 02:20:01;;;;;;;15.73;5.82;;;;;;;15.81;100.00;100713.97;5089388;28;20055;-70
2022/11/01 02:22:54;;;;;;;11.18;3.65;;;;;;;15.84;100.00;100718.06;5089237;28;20090;-70
2022/11/01 02:25:22;;;;;;;12.27;4.97;;;;;;;15.84;100.00;100724.25;5089351;28;20478;-70
2022/11/01 02:28:13;;;;;;;9.80;5.55;;;;;;;15.85;100.00;100733.97;5089279;28;20027;-70
2022/11/01 02:30:55;;;;;;;12.15;4.60;;;;;;;15.87;100.00;100723.78;5088897;28;20129;-70
2022/11/01 02:33:38;;;;;;;14.15;4.30;;;;;;;15.92;100.00;100731.97;5088892;28;20071;-69
2022/11/01 02:36:43;;;;;;;10.38;4.78;;;;;;;15.94;100.00;100723.66;5089154;28;20027;-70
2022/11/01 02:39:27;;;;;;;12.40;4.63;;;;;;;15.90;100.00;100725.19;5089055;28;20027;-70
2022/11/01 02:42:34;;;;;;;10.32;4.28;;;;;;;15.85;100.00;100720.53;5089106;28;20041;-70
2022/11/01 02:45:11;;;;;;;15.00;5.47;;;;;;;15.83;100.00;100727.19;5026475;28;20033;-70
2022/11/01 02:47:39;;;;;;;9.63;4.60;;;;;;;15.79;100.00;100721.44;5081235;28;20040;-70
2022/11/01 02:50:08;;;;;;;11.25;3.92;;;;;;;15.81;100.00;100724.72;5089158;28;20023;-69
2022/11/01 02:52:39;;;;;;;11.77;4.78;;;;;;;15.78;100.00;100726.00;5089195;28;20067;-69
2022/11/01 02:55:28;;;;;;;9.02;3.35;;;;;;;15.80;100.00;100730.31;5088906;28;20020;-70
2022/11/01 02:57:56;;;;;;;10.93;4.35;;;;;;;15.78;100.00;100723.31;5088481;28;20050;-70
2022/11/01 03:00:28;;;;;;;10.07;4.10;;;;;;;15.82;100.00;100733.59;5088821;28;20031;-70
2022/11/01 03:03:06;;;;;;;5.90;3.80;;;;;;;15.78;100.00;100728.69;5088921;28;20069;-70
2022/11/01 03:05:38;;;;;;;12.45;4.22;;;;;;;15.82;100.00;100734.41;5070678;28;20024;-71
2022/11/01 03:08:11;;;;;;;11.98;4.93;;;;;;;15.79;100.00;100734.91;5088234;28;20032;-70
2022/11/01 03:11:01;;;;;;;13.95;3.88;;;;;;;15.78;100.00;100742.16;5088469;28;20028;-70
2022/11/01 03:13:55;;;;;;;8.07;3.78;;;;;;;15.79;100.00;100742.97;5088518;28;20051;-70
2022/11/01 03:16:26;;;;;;;10.48;4.07;;;;;;;15.77;100.00;100747.75;5088665;28;20039;-70
2022/11/01 03:19:26;;;;;;;7.13;3.75;;;;;;;15.72;100.00;100751.16;5088772;28;20032;-70
2022/11/01 03:22:08;;;;;;;7.93;3.80;;;;;;;15.75;100.00;100757.94;5088127;28;20056;-70
2022/11/01 03:24:37;;;;;;;;;;;;;;;15.75;100.00;100750.69;5088871;28;20024;-70
2022/11/01 03:27:12;;;;;;;6.38;4.00;;;;;;;15.77;100.00;100758.50;5088685;28;19961;-70
2022/11/01 03:29:39;;;;;;;8.10;4.18;;;;;;;15.76;100.00;100759.56;5088638;28;20034;-70
2022/11/01 03:32:07;;;;;;;13.00;3.35;;;;;;;15.74;100.00;100761.66;5088062;28;20043;-70
2022/11/01 03:34:35;;;;;;;7.88;4.10;;;;;;;15.74;100.00;100775.13;5088251;28;20024;-70
2022/11/01 03:37:05;;;;;;;10.18;3.85;;;;;;;15.71;100.00;100765.63;5088506;28;20073;-70
2022/11/01 03:39:36;;;;;;;9.57;4.60;;;;;;;15.75;100.00;100768.69;5088496;28;20032;-70
2022/11/01 03:42:07;;;;;;;7.53;3.70;;;;;;;15.77;100.00;100769.25;5088641;28;20031;-70
2022/11/01 03:44:41;;;;;;;6.63;4.35;;;;;;;15.80;99.50;100773.34;5088549;28;20059;-70
2022/11/01 03:47:06;;;;;;;10.10;4.85;;;;;;;15.80;99.19;100781.44;5088562;28;20035;-70
2022/11/01 03:49:32;;;;;;;8.82;3.45;;;;;;;15.79;97.31;100788.69;5088383;28;20036;-70
2022/11/01 03:51:57;;;;;;;6.93;3.22;;;;;;;15.76;92.95;100803.41;5088475;28;20637;-70
2022/11/01 03:54:22;;;;;;;6.15;3.78;;;;;;;15.77;90.01;100814.97;5088122;28;20052;-70
2022/11/01 03:56:48;;;;;;;5.30;1.95;;;;;;;15.69;88.94;100820.69;5090468;28;20359;-69
2022/11/01 03:59:13;;;;;;;6.28;3.13;;;;;;;15.57;87.02;100813.41;5091387;28;20032;-70
2022/11/01 04:01:38;;;;;;;2.33;1.77;;;;;;;15.57;86.87;100826.84;5091913;28;20364;-70
2022/11/01 04:04:04;;;;;;;2.55;1.85;;;;;;;15.51;85.77;100843.91;5073373;28;20032;-70
2022/11/01 04:06:29;;;;;;;4.80;2.33;;;;;;;15.44;83.78;100837.00;5091924;28;20068;-70
2022/11/01 04:08:55;;;;;;;3.30;1.60;;;;;;;15.45;82.48;100847.50;5091817;28;20020;-69
2022/11/01 04:11:20;;;;;;;3.50;1.73;;;;;;;15.37;81.79;100853.19;5091747;28;20120;-70
2022/11/01 04:13:46;;;;;;;2.90;1.70;;;;;;;15.34;81.01;100862.53;5091921;28;20044;-70
2022/11/01 04:21:40;;;;;;;5.70;1.48;;;;;;;15.18;77.14;100881.97;5092058;28;20050;-70
2022/11/01 04:24:06;;;;;;;1.50;1.20;;;;;;;15.07;78.91;100897.00;5091775;28;20031;-70
2022/11/01 04:26:33;;;;;;;2.13;1.13;;;;;;;14.96;77.80;100904.97;5091595;28;20113;-71
2022/11/01 04:28:58;;;;;;;2.05;1.15;;;;;;;14.89;76.50;100905.06;5091369;28;20431;-70
2022/11/01 04:31:25;;;;;;;2.20;0.90;;;;;;;14.89;75.01;100919.31;5091567;28;20104;-70
2022/11/01 04:33:50;;;;;;;3.63;1.00;;;;;;;14.82;74.60;100918.53;5090927;28;20052;-69
2022/11/01 04:36:16;;;;;;;3.28;1.00;;;;;;;14.81;75.32;100921.47;5091233;28;20043;-70
2022/11/01 04:38:41;;;;;;;3.47;0.70;;;;;;;14.73;74.91;100927.13;5073453;28;20092;-70
2022/11/01 04:41:06;;;;;;;2.30;1.02;;;;;;;14.66;76.10;100930.69;5090083;28;20031;-70
2022/11/01 04:43:32;;;;;;;5.13;0.98;;;;;;;14.57;76.91;100936.59;5091249;28;20031;-70
2022/11/01 04:45:57;;;;;;;1.30;0.93;;;;;;;14.49;76.22;100943.03;5091156;28;20089;-70
2022/11/01 04:48:25;;;;;;;3.28;0.90;;;;;;;14.43;75.99;100950.06;5090903;28;20425;-70
2022/11/01 04:50:50;;;;;;;5.97;2.30;;;;;;;14.33;76.83;100948.91;5090960;28;20083;-69
2022/11/01 04:53:16;;;;;;;2.38;1.02;;;;;;;14.27;77.69;100960.53;5091235;28;20475;-70
2022/11/01 04:55:41;;;;;;;4.40;0.90;;;;;;;14.23;77.01;100971.69;5072907;28;20075;-69
2022/11/01 04:58:09;;;;;;;1.98;1.00;;;;;;;14.17;77.25;100975.28;5091063;28;20062;-70
2022/11/01 05:00:35;;;;;;;2.08;1.00;;;;;;;14.13;77.23;100986.63;5090236;28;20023;-70
2022/11/01 05:03:03;;;;;;;5.43;0.90;;;;;;;14.06;77.04;100997.41;5090312;28;20031;-70
2022/11/01 05:05:29;;;;;;;2.75;1.02;;;;;;;14.03;77.82;101001.34;5090293;28;20024;-70
2022/11/01 05:08:06;;;;;;;4.93;1.38;;;;;;;14.04;77.48;101018.25;5090520;28;20100;-70
2022/11/01 05:10:33;;;;;;;2.33;1.17;;;;;;;14.01;77.54;101010.63;5090598;28;20106;-72
2022/11/01 05:12:59;;;;;;;3.10;1.00;;;;;;;13.95;77.25;101025.72;5090154;28;20428;-70
2022/11/01 05:15:24;;;;;;;4.93;0.60;;;;;;;13.91;76.96;101029.88;5072345;28;20034;-70
2022/11/01 05:17:50;;;;;;;7.45;1.27;;;;;;;13.91;77.67;101037.09;5090379;28;20052;-71
2022/11/01 05:20:15;;;;;;;4.25;1.42;;;;;;;13.85;77.85;101043.31;5090555;28;20063;-70
2022/11/01 05:22:40;;;;;;;3.10;0.93;;;;;;;13.82;78.06;101025.78;5072101;28;20044;-70
2022/11/01 05:25:08;;;;;;;1.30;0.90;;;;;;;13.74;77.82;101048.31;5090422;28;20038;-70
2022/11/01 05:27:34;;;;;;;1.67;0.90;;;;;;;13.64;78.18;101039.06;5090509;28;20032;-70
2022/11/01 05:29:59;;;;;;;7.05;2.15;;;;;;;13.62;78.57;101047.31;5090288;28;20073;-69
2022/11/01 05:32:25;;;;;;;1.60;1.30;;;;;;;13.59;78.35;101045.88;5090194;28;20047;-69
2022/11/01 05:34:50;;;;;;;2.70;0.90;;;;;;;13.54;78.77;101051.03;5090114;28;20034;-70
2022/11/01 05:37:15;;;;;;;1.48;0.93;;;;;;;13.47;79.33;101052.94;5090091;28;20035;-70
2022/11/01 05:39:41;;;;;;;2.53;1.17;;;;;;;13.42;79.58;101057.28;5090172;28;20024;-72
2022/11/01 05:42:06;;;;;;;2.95;0.93;;;;;;;13.34;80.27;101058.34;5072012;28;20044;-70
2022/11/01 05:44:32;;;;;;;4.38;1.20;;;;;;;13.28;80.20;101053.81;5090236;28;20032;-70
2022/11/01 05:46:57;;;;;;;3.95;1.85;;;;;;;13.22;80.43;101044.72;5090004;28;20471;-70
2022/11/01 05:49:23;;;;;;;3.30;1.30;;;;;;;13.23;80.60;101051.75;5072017;28;20671;-69
2022/11/01 05:51:48;;;;;;;3.65;1.30;;;;;;;13.25;80.45;101056.88;5071758;28;20634;-70
2022/11/01 05:54:14;;;;;;;1.83;0.90;;;;;;;13.19;80.51;101058.53;5089911;28;20114;-70
2022/11/01 05:56:39;;;;;;;2.60;0.80;;;;;;;13.12;80.35;101057.72;5089354;28;20062;-69
2022/11/01 05:59:04;;;;;;;2.67;0.90;;;;;;;13.16;80.75;101075.03;5070894;28;20036;-69
2022/11/01 06:01:30;;;;;;;0.77;0.77;;;;;;;13.14;81.20;101077.91;5071327;28;20131;-70
2022/11/01 06:04:00;;;;;;;2.30;0.80;;;;;;;13.12;81.18;101089.84;5089049;28;20324;-70
2022/11/01 06:06:27;;;;;;;4.18;1.40;;;;;;;13.06;81.72;101086.16;5072358;28;20027;-69
2022/11/01 06:08:53;;;;;;;1.88;1.30;;;;;;;13.00;80.07;101075.47;5089427;28;20481;-70
2022/11/01 06:11:18;;;;;;;4.45;1.33;;;;;;;13.08;79.17;101094.00;5089510;28;20123;-70
2022/11/01 06:13:43;;;;;;;5.38;1.08;;;;;;;13.12;78.08;101103.25;5089379;28;20036;-70
2022/11/01 06:16:09;;;;;;;3.08;1.65;;;;;;;13.09;77.63;101106.34;5088998;28;20032;-69
2022/11/01 06:18:34;;;;;;;1.27;1.08;;;;;;;13.07;77.94;101100.34;5088862;28;20038;-70
2022/11/01 06:20:59;;;;;;;5.10;1.52;;;;;;;13.02;76.71;101102.84;5089385;28;20123;-69
2022/11/01 06:23:25;;;;;;;2.25;1.30;;;;;;;12.98;75.97;101099.75;5071161;28;20089;-70
2022/11/01 06:25:58;;;;;;;3.22;1.15;;;;;;;13.02;76.16;101122.41;5089228;28;20024;-70
2022/11/01 06:28:23;;;;;;;3.45;1.17;;;;;;;12.97;76.96;101132.94;5088948;28;20136;-70
2022/11/01 06:30:49;;;;;;;7.97;1.50;;;;;;;12.94;76.63;101125.28;5088866;28;20065;-70
2022/11/01 06:33:14;;;;;;;5.10;1.25;;;;;;;12.86;77.47;101125.47;5054171;28;20064;-69
2022/11/01 06:35:39;;;;;;;5.88;1.88;;;;;;;12.86;77.91;101137.03;5089357;28;20047;-70
2022/11/01 06:38:06;;;;;;;5.68;1.10;;;;;;;12.86;78.31;101141.53;5088661;28;20132;-70
2022/11/01 06:40:33;;;;;;;2.10;1.58;;;;;;;12.79;78.84;101138.88;5089041;28;20027;-70
2022/11/01 06:43:00;;;;;;;3.20;1.02;;;;;;;12.79;78.13;101140.72;5071208;28;20402;-69
2022/11/01 06:45:25;;;;;;;7.93;1.83;;;;;;;12.77;78.38;101140.94;5089197;28;20024;-69
2022/11/01 06:47:51;;;;;;;1.30;0.65;;;;;;;12.78;78.75;101144.41;5089004;28;20149;-69
2022/11/01 06:50:16;;;;;;;3.85;1.05;;;;;;;12.72;79.15;101143.38;5088768;28;20043;-70
2022/11/01 06:52:41;;;;;;;9.23;2.75;;;;;;;12.71;78.77;101141.75;5088806;28;20035;-69
2022/11/01 06:55:07;;;;;;;2.35;0.85;;;;;;;12.78;79.45;101157.81;5088833;28;20394;-69
2022/11/01 06:57:32;;;;;;;2.83;1.27;;;;;;;12.82;79.08;101161.72;5070892;28;20570;-69
2022/11/01 06:59:58;;;;;;;3.13;0.88;;;;;;;12.83;79.80;101168.72;5089076;28;20039;-69
2022/11/01 07:02:24;;;;;;;7.55;1.40;;;;;;;12.79;79.56;101176.34;5088987;28;20057;-69
2022/11/01 07:04:50;;;;;;;2.47;0.85;;;;;;;12.70;80.37;101175.69;5070805;28;20347;-69
2022/11/01 07:07:15;;;;;;;2.95;1.17;;;;;;;12.72;80.35;101183.53;5088644;28;20028;-70
2022/11/01 07:09:40;;;;;;;8.85;1.35;;;;;;;12.75;79.97;101185.78;5088765;28;20979;-70
2022/11/01 07:12:06;;;;;;;3.60;1.95;;;;;;;12.75;80.22;101187.66;5088816;28;20089;-69
2022/11/01 07:14:31;;;;;;;6.00;1.30;;;;;;;12.67;80.38;101183.31;5088735;28;20153;-70
2022/11/01 07:16:56;;;;;;;2.42;0.80;;;;;;;12.66;80.17;101187.84;5070555;28;20039;-70
2022/11/01 07:19:22;;;;;;;7.45;1.55;;;;;;;12.71;80.53;101200.63;5088578;28;20032;-70
2022/11/01 07:21:48;;;;;;;3.78;1.15;;;;;;;12.71;81.19;101214.00;5088565;28;20348;-69
2022/11/01 07:24:13;;;;;;;4.57;1.40;;;;;;;12.68;80.67;101214.38;5088604;28;20364;-69
2022/11/01 07:26:39;;;;;;;8.95;1.67;;;;;;;12.70;80.21;101218.50;5088490;28;20680;-70
2022/11/01 07:29:04;;;;;;;3.63;1.13;;;;;;;12.74;79.93;101220.81;5087918;28;20392;-69
2022/11/01 07:31:32;;;;;;;6.70;1.48;;;;;;;12.74;79.79;101223.50;5092583;28;20025;-70
2022/11/01 07:33:57;;;;;;;10.23;2.17;;;;;;;12.78;79.42;101222.84;5092291;28;20078;-70
2022/11/01 07:36:23;;;;;;;7.40;1.90;;;;;;;12.83;79.56;101231.09;5092169;28;20028;-68
2022/11/01 07:38:48;;;;;;;9.75;2.17;;;;;;;12.96;78.49;101245.56;5092383;28;20382;-69
2022/11/01 07:41:14;;;;;;;5.80;1.00;;;;;;;13.05;77.18;101247.84;5092264;28;20036;-71
2022/11/01 07:43:39;;;;;;;5.63;2.10;;;;;;;13.11;77.50;101254.25;5074239;28;20394;-68
2022/11/01 07:46:06;;;;;;;9.43;2.05;;;;;;;13.18;76.81;101247.06;5092409;28;20028;-68
2022/11/01 07:48:32;;;;;;;4.43;1.42;;;;;;;13.17;77.37;101264.13;5092261;28;20050;-68
2022/11/01 07:50:58;;;;;;;5.63;2.10;;;;;;;13.12;76.56;101259.38;5092304;28;20032;-68
2022/11/01 07:53:24;;;;;;;8.55;2.47;;;;;;;13.12;76.46;101262.06;5092177;28;20032;-68
2022/11/01 07:55:50;;;;;;;10.13;2.95;;;;;;;13.12;76.96;101269.28;5091913;28;20043;-71
2022/11/01 07:58:16;;;;;;;5.75;1.63;;;;;;;13.10;76.33;101274.84;5092171;28;20031;-68
2022/11/01 08:00:43;;;;;;;4.13;1.08;;;;;;;13.13;76.64;101266.41;5092009;28;20115;-69
2022/11/01 08:03:16;;;;;;;4.30;1.38;;;;;;;13.10;77.57;101269.50;5091652;28;20077;-69
2022/11/01 08:05:42;;;;;;;10.52;2.55;;;;;;;13.11;77.33;101263.09;5092024;28;20028;-69
2022/11/01 08:08:09;;;;;;;7.53;2.45;;;;;;;13.12;76.35;101262.06;5090240;28;20032;-69
2022/11/01 08:10:35;;;;;;;11.73;1.55;;;;;;;13.16;76.37;101284.75;5091090;28;20046;-69
2022/11/01 08:13:05;;;;;;;8.25;1.90;;;;;;;13.19;76.25;101282.69;5072897;28;20032;-69
2022/11/01 08:15:31;;;;;;;6.68;1.50;;;;;;;13.23;76.64;101292.81;5091290;28;20383;-68
2022/11/01 08:17:57;;;;;;;10.57;3.03;;;;;;;13.24;75.46;101301.66;5091691;28;20085;-68
2022/11/01 08:20:23;;;;;;;3.95;1.38;;;;;;;13.25;75.98;101298.75;5090905;28;20019;-68
2022/11/01 08:22:48;;;;;;;9.23;2.25;;;;;;;13.30;76.30;101292.84;5091229;28;20089;-69
2022/11/01 08:25:14;;;;;;;5.82;1.05;;;;;;;13.33;75.66;101297.78;5091491;28;20028;-69
2022/11/01 08:27:39;;;;;;;7.05;1.45;;;;;;;13.36;75.30;101308.09;5091500;28;20172;-68
2022/11/01 08:30:05;;;;;;;15.80;2.80;;;;;;;13.39;75.48;101310.38;5086579;28;20532;-71
2022/11/01 08:32:30;;;;;;;10.30;2.15;;;;;;;13.44;74.68;101320.47;5074760;28;20071;-72
2022/11/01 08:34:56;;;;;;;7.13;1.48;;;;;;;13.47;74.25;101312.03;5074405;28;20130;-73
2022/11/01 08:37:22;;;;;;;7.32;1.83;;;;;;;13.48;74.36;101311.81;5075279;28;20058;-69
2022/11/01 08:39:47;;;;;;;7.72;1.98;;;;;;;13.50;74.17;101325.84;5073471;28;20081;-70
2022/11/01 08:42:13;;;;;;;10.48;1.60;;;;;;;13.53;73.24;101324.63;5073539;28;20365;-68
2022/11/01 08:44:38;;;;;;;8.15;1.48;;;;;;;13.52;73.31;101326.47;5073778;28;20556;-69
2022/11/01 08:47:04;;;;;;;11.30;2.10;;;;;;;13.54;72.89;101320.88;5075345;28;20062;-70
2022/11/01 08:49:29;;;;;;;6.75;2.08;;;;;;;13.58;74.04;101322.16;5073858;28;20538;-70
2022/11/01 08:51:55;;;;;;;6.22;1.33;;;;;;;13.60;73.72;101312.06;5074917;28;20054;-69
2022/11/01 08:54:20;;;;;;;13.15;2.58;;;;;;;13.66;73.23;101315.75;5073857;28;20414;-70
2022/11/01 08:56:45;;;;;;;10.32;2.20;;;;;;;13.74;73.31;101315.56;5075552;28;20541;-70
2022/11/01 08:59:11;;;;;;;2.88;1.63;;;;;;;13.75;72.61;101322.56;5075246;28;20114;-70
2022/11/01 09:01:37;;;;;;;9.18;1.73;;;;;;;13.80;72.53;101331.63;5048548;28;20495;-70
2022/11/01 09:04:03;;;;;;;14.40;2.40;;;;;;;13.85;72.48;101320.28;5073299;28;20032;-68
2022/11/01 09:06:28;;;;;;;11.75;2.30;;;;;;;13.80;72.81;101314.72;5076017;28;20026;-69
2022/11/01 09:08:55;;;;;;;3.67;1.02;;;;;;;13.91;72.96;101334.72;5073766;28;20866;-70
2022/11/01 09:11:23;;;;;;;5.20;1.40;;;;;;;13.95;72.21;101344.84;5073626;28;20034;-70
2022/11/01 09:13:49;;;;;;;4.57;1.40;;;;;;;13.97;72.67;101344.63;5072587;28;20079;-70
2022/11/01 09:16:15;;;;;;;8.52;2.42;;;;;;;14.00;71.95;101330.81;5072921;28;20032;-71
2022/11/01 09:18:41;;;;;;;11.02;3.00;;;;;;;13.98;71.97;101339.06;5074728;28;20098;-69
2022/11/01 09:21:06;;;;;;;4.30;1.23;;;;;;;14.01;71.87;101344.00;5089842;28;20127;-70
2022/11/01 09:23:36;;;;;;;8.25;1.55;;;;;;;14.07;72.04;101352.25;5090439;28;20069;-69
2022/11/01 09:26:07;;;;;;;16.98;2.75;;;;;;;14.11;71.83;101343.59;5072138;28;20035;-69
2022/11/01 09:28:33;;;;;;;4.73;1.20;;;;;;;14.11;71.81;101353.50;5090295;28;20985;-69
2022/11/01 09:31:11;;;;;;;9.88;3.08;;;;;;;14.16;71.54;101345.66;5090136;28;20032;-68
2022/11/01 09:33:36;;;;;;;16.38;2.30;;;;;;;14.18;71.88;101354.31;5079494;28;20398;-70
2022/11/01 09:36:01;;;;;;;6.13;1.65;;;;;;;14.19;72.19;101364.00;5073844;28;20036;-68
2022/11/01 09:38:27;;;;;;;6.68;2.10;;;;;;;14.21;71.10;101367.31;5090258;28;20034;-68
2022/11/01 09:41:06;;;;;;;2.75;1.40;;;;;;;14.27;73.53;101355.75;5089726;28;20036;-68
2022/11/01 09:43:35;;;;;;;10.02;2.85;;;;;;;14.28;71.25;101361.94;5089631;28;20558;-68
2022/11/01 09:46:03;;;;;;;6.07;1.42;;;;;;;14.32;71.43;101364.00;5071482;28;20383;-68
2022/11/01 09:48:30;;;;;;;5.18;1.38;;;;;;;14.32;72.02;101380.09;5090105;28;20024;-69
2022/11/01 09:50:57;;;;;;;9.07;1.58;;;;;;;14.36;72.13;101392.06;5090044;28;20028;-68
2022/11/01 09:53:26;;;;;;;6.03;2.10;;;;;;;14.39;72.35;101393.50;5089297;28;20028;-68
2022/11/01 09:56:08;;;;;;;8.35;1.90;;;;;;;14.42;70.53;101401.97;5089961;28;20036;-68
2022/11/01 09:59:11;;;;;;;6.65;1.63;;;;;;;14.45;71.72;101409.59;5089635;28;20028;-68
2022/11/01 10:01:47;;;;;;;10.98;2.97;;;;;;;14.47;70.89;101407.53;5089889;28;20035;-68
2022/11/01 10:04:47;;;;;;;7.35;1.88;;;;;;;14.53;71.96;101422.00;5089681;28;20020;-69
2022/11/01 10:07:18;;;;;;;6.88;1.10;;;;;;;14.54;71.48;101410.25;5089657;28;20060;-71
2022/11/01 10:10:02;;;;;;;9.02;1.95;;;;;;;14.51;72.30;101413.28;5073096;28;20056;-69
2022/11/01 10:12:36;;;;;;;5.25;1.85;;;;;;;14.59;71.76;101420.34;5072208;28;20028;-71
2022/11/01 10:15:34;;;;;;;13.68;2.67;;;;;;;14.65;72.28;101430.25;5072725;28;20048;-69
2022/11/01 10:18:17;;;;;;;5.55;1.92;;;;;;;14.67;70.50;101415.59;5073526;28;20032;-71
2022/11/01 10:20:43;;;;;;;7.63;2.50;;;;;;;14.68;70.89;101429.84;5070870;28;20119;-69
2022/11/01 10:23:14;;;;;;;13.15;2.88;;;;;;;14.74;70.79;101436.22;5071766;28;20067;-69
2022/11/01 10:25:43;;;;;;;7.38;1.70;;;;;;;14.77;70.90;101428.56;5073118;28;20051;-68
2022/11/01 10:28:24;;;;;;;6.38;1.83;;;;;;;14.73;71.52;101432.72;5071815;28;20028;-70
2022/11/01 10:31:00;;;;;;;7.93;1.60;;;;;;;14.61;71.85;101443.25;5088424;28;20039;-71
2022/11/01 10:33:34;;;;;;;7.13;2.83;;;;;;;14.54;71.00;101433.56;5089234;28;20052;-70
2022/11/01 10:36:04;;;;;;;5.40;1.30;;;;;;;14.55;71.66;101425.31;5088877;28;20028;-70
2022/11/01 10:38:39;;;;;;;12.73;2.88;;;;;;;14.61;72.36;101429.84;5071057;28;20024;-70
2022/11/01 10:41:18;;;;;;;6.10;1.58;;;;;;;14.72;71.99;101424.84;5089077;28;20440;-70
2022/11/01 10:43:50;;;;;;;8.07;1.38;;;;;;;14.74;71.07;101423.63;5089201;28;20032;-70
2022/11/01 10:46:20;;;;;;;7.80;2.20;;;;;;;14.82;71.08;101428.75;5088975;28;20027;-70
2022/11/01 10:48:53;;;;;;;9.65;2.38;;;;;;;14.93;71.89;101426.47;5088958;28;20032;-70
2022/11/01 10:51:23;;;;;;;11.48;2.70;;;;;;;14.99;71.02;101437.19;5089050;28;20039;-71
2022/11/01 10:53:57;;;;;;;7.65;1.70;;;;;;;15.05;71.09;101435.53;5088665;28;20520;-69
2022/11/01 10:56:45;;;;;;;14.38;4.38;;;;;;;15.14;71.44;101423.47;5088906;28;20028;-70
2022/11/01 10:59:19;;;;;;;8.80;2.05;;;;;;;15.19;70.45;101425.53;5088112;28;20058;-70
2022/11/01 11:01:47;;;;;;;9.40;1.75;;;;;;;15.23;69.87;101421.41;5088937;28;20024;-70
2022/11/01 11:04:15;;;;;;;5.05;1.27;;;;;;;15.31;70.59;101438.09;5089179;28;20016;-71
2022/11/01 11:06:41;;;;;;;7.22;2.03;;;;;;;15.29;69.51;101429.41;5093126;28;20031;-70
2022/11/01 11:09:17;;;;;;;6.13;1.92;;;;;;;15.29;70.04;101429.41;5093123;28;20028;-70
2022/11/01 11:11:45;;;;;;;4.03;1.75;;;;;;;15.30;69.30;101425.72;5093052;28;20082;-70
2022/11/01 11:14:13;;;;;;;8.30;2.10;;;;;;;15.35;69.23;101435.78;5092616;28;20036;-71
2022/11/01 11:16:44;;;;;;;9.75;2.33;;;;;;;15.41;70.40;101429.59;5092122;28;20489;-70
2022/11/01 11:19:21;;;;;;;9.02;1.73;;;;;;;15.46;70.33;101432.47;5092558;28;20024;-71
2022/11/01 11:21:49;;;;;;;8.63;1.30;;;;;;;15.47;69.00;101426.03;5092684;28;20058;-70
2022/11/01 11:24:22;;;;;;;7.20;2.38;;;;;;;15.52;70.12;101426.22;5092607;28;20019;-70
2022/11/01 11:26:51;;;;;;;6.03;1.70;;;;;;;15.56;69.35;101432.81;5092700;28;20032;-72
2022/11/01 11:29:34;;;;;;;8.35;1.80;;;;;;;15.57;69.21;101429.09;5092534;28;20104;-66
2022/11/01 11:32:00;;;;;;;7.32;2.13;;;;;;;15.57;69.90;101423.69;5092792;28;20082;-65
2022/11/01 11:34:29;;;;;;;8.80;1.75;;;;;;;15.58;69.00;101432.59;5092500;28;20044;-66
2022/11/01 11:36:56;;;;;;;6.78;1.55;;;;;;;15.64;69.40;101433.59;5092465;28;20028;-65
2022/11/01 11:39:35;;;;;;;10.25;2.03;;;;;;;15.67;69.13;101434.00;5092530;28;20475;-66